North Vassalboro, Maine
Current Conditions -  °F | °C
As of 10:55 AM on Sunday 21 Dec 2014 (Local Time) from KWVL Reporting Station
Overcast Overcast  
Wind Chill: 20°   Ceiling: 4100
Heat Index: 27°   Visibility: 10mi
Dew Point: 19°   Wind: 6mph
Humidity: 74%   Direction: 360°N
Pressure: 30.32"   Gusts: NA
Location:  44.49°N, 69.62°W
Report Text: KWVL 211555Z 36005KT 10SM OVC041 M03/M07 A3032 RMK AO1
Loading
Personal Weather Stations






























Interactive Weather Map New forecast layout! Learn more

10-Day Weather Forecast

Advertisements
Track Severe Weather on mobile